Asahikawa Airport
RJEC : now visible

Airfield :











YOU CAN JOIN US ON...

 
LOGIN :

Register | Disclaimer

   EN    FR    IT 

 









Legend :    VFR   Marginal VFR   IFR   Intensive IFR   Very Intensive IFR
Visi :
Ceiling :
>= 8 km
>= 3000ft
5 to 8 km
1000 to 3000 ft
1500m to 5 km
500 to 1000 ft
800 to 1500m
200 to 500 ft
< 800m
< 200 ft
Symbols :   Thunderstorms  Fog  Heavy snow  Heavy precipitations  Wind > 20 kt






- Airport Elevation : 721 ft
- IATA code : AKJ


RJEC - Asahikawa

CURRENT METAR :
  • 240500Z VRB04KT 9999 -SHSN FEW010 SCT025 BKN040 M00/M05 Q1012

EXPIRED METARs :
  • 240400Z VRB01KT 9999 FEW010 SCT030 BKN050 01/M07 Q1012
  • 240300Z 28007KT 240V310 9999 -SHSN FEW008 SCT025 BKN040 M01/M06 Q1013

TAF TAF RJEC
Valid from the 24 at 06:00 until the 25 at 12:00 UTC


240513Z 2406/2512 31005KT 9999 FEW008 BKN015
TEMPO 2406/2410 3000 -SHSN
TEMPO 2416/2418 2000 BR
TEMPO 2418/2500 0700 FZFG VV001
BECMG 2509/2512 18005KT



MET'MAP, your aeronautical weather chart ! - Copyright ORBIFLY December 2007 - Disclaimer

ORBIFLY MET'MAP TEAM :

Programming & Development : Alexandra Zaïnal
Concept & original design : Baudouin d'Aumeries
Assistance for programming : Marc-Olivier Méhu
Technical & hardware support : Manuel Goepfert

Contact : metmap@orbifly.com




SOURCES & CREDITS :

   NOAA       Earth
Advisory